sensor_id;sensor_type;location;lat;lon;timestamp;P1;durP1;ratioP1;P2;durP2;ratioP2
69627;SDS011;56850;51.984;5.088;2023-03-09T00:00:16;20.15;;;12.50;;
69627;SDS011;56850;51.984;5.088;2023-03-09T00:02:48;17.05;;;10.88;;
69627;SDS011;56850;51.984;5.088;2023-03-09T00:05:15;18.52;;;11.80;;
69627;SDS011;56850;51.984;5.088;2023-03-09T00:07:46;19.40;;;12.93;;
69627;SDS011;56850;51.984;5.088;2023-03-09T00:10:14;18.17;;;11.13;;
69627;SDS011;56850;51.984;5.088;2023-03-09T00:12:41;19.27;;;12.48;;
69627;SDS011;56850;51.984;5.088;2023-03-09T00:15:08;19.10;;;12.00;;
69627;SDS011;56850;51.984;5.088;2023-03-09T00:17:36;19.20;;;11.88;;
69627;SDS011;56850;51.984;5.088;2023-03-09T00:20:04;18.77;;;12.30;;
69627;SDS011;56850;51.984;5.088;2023-03-09T00:22:47;17.00;;;10.25;;
69627;SDS011;56850;51.984;5.088;2023-03-09T00:25:15;19.70;;;12.07;;
69627;SDS011;56850;51.984;5.088;2023-03-09T00:27:43;18.58;;;12.82;;
69627;SDS011;56850;51.984;5.088;2023-03-09T00:30:13;18.67;;;12.18;;
69627;SDS011;56850;51.984;5.088;2023-03-09T00:32:41;17.57;;;11.83;;
69627;SDS011;56850;51.984;5.088;2023-03-09T00:35:08;19.25;;;11.80;;
69627;SDS011;56850;51.984;5.088;2023-03-09T00:37:35;16.65;;;11.18;;
69627;SDS011;56850;51.984;5.088;2023-03-09T00:40:06;20.30;;;12.68;;
69627;SDS011;56850;51.984;5.088;2023-03-09T00:42:37;18.38;;;12.30;;
69627;SDS011;56850;51.984;5.088;2023-03-09T00:45:05;18.97;;;13.03;;
69627;SDS011;56850;51.984;5.088;2023-03-09T00:47:33;20.80;;;12.02;;
69627;SDS011;56850;51.984;5.088;2023-03-09T00:49:59;17.98;;;12.00;;
69627;SDS011;56850;51.984;5.088;2023-03-09T00:52:27;14.23;;;8.80;;
69627;SDS011;56850;51.984;5.088;2023-03-09T00:54:53;20.67;;;12.32;;
69627;SDS011;56850;51.984;5.088;2023-03-09T00:57:20;20.67;;;11.60;;
69627;SDS011;56850;51.984;5.088;2023-03-09T00:59:48;21.35;;;11.90;;
69627;SDS011;56850;51.984;5.088;2023-03-09T01:02:17;19.10;;;12.02;;
69627;SDS011;56850;51.984;5.088;2023-03-09T01:04:45;19.50;;;12.77;;
69627;SDS011;56850;51.984;5.088;2023-03-09T01:07:13;20.85;;;12.50;;
69627;SDS011;56850;51.984;5.088;2023-03-09T01:09:40;21.70;;;13.27;;
69627;SDS011;56850;51.984;5.088;2023-03-09T01:12:08;21.27;;;12.82;;
69627;SDS011;56850;51.984;5.088;2023-03-09T01:14:35;25.38;;;13.32;;
69627;SDS011;56850;51.984;5.088;2023-03-09T01:17:03;18.85;;;11.70;;
69627;SDS011;56850;51.984;5.088;2023-03-09T01:19:30;18.27;;;11.30;;
69627;SDS011;56850;51.984;5.088;2023-03-09T01:21:59;19.13;;;11.90;;
69627;SDS011;56850;51.984;5.088;2023-03-09T01:24:27;18.17;;;12.13;;
69627;SDS011;56850;51.984;5.088;2023-03-09T01:26:55;19.52;;;11.90;;
69627;SDS011;56850;51.984;5.088;2023-03-09T01:29:22;16.42;;;11.20;;
69627;SDS011;56850;51.984;5.088;2023-03-09T01:31:49;21.80;;;12.07;;
69627;SDS011;56850;51.984;5.088;2023-03-09T01:34:15;21.60;;;11.90;;
69627;SDS011;56850;51.984;5.088;2023-03-09T01:36:42;20.45;;;12.18;;
69627;SDS011;56850;51.984;5.088;2023-03-09T01:39:10;18.08;;;12.15;;
69627;SDS011;56850;51.984;5.088;2023-03-09T01:41:37;20.38;;;12.15;;
69627;SDS011;56850;51.984;5.088;2023-03-09T01:44:08;19.35;;;11.55;;
69627;SDS011;56850;51.984;5.088;2023-03-09T01:49:17;19.85;;;11.88;;
69627;SDS011;56850;51.984;5.088;2023-03-09T01:54:41;19.92;;;11.80;;
69627;SDS011;56850;51.984;5.088;2023-03-09T01:57:17;18.08;;;11.05;;
69627;SDS011;56850;51.984;5.088;2023-03-09T02:00:12;16.73;;;10.13;;
69627;SDS011;56850;51.984;5.088;2023-03-09T02:02:53;18.95;;;12.10;;
69627;SDS011;56850;51.984;5.088;2023-03-09T02:05:34;18.27;;;11.73;;
69627;SDS011;56850;51.984;5.088;2023-03-09T02:08:08;20.00;;;12.40;;
69627;SDS011;56850;51.984;5.088;2023-03-09T02:10:40;20.42;;;11.93;;
69627;SDS011;56850;51.984;5.088;2023-03-09T02:13:15;19.30;;;11.13;;
69627;SDS011;56850;51.984;5.088;2023-03-09T02:15:44;19.63;;;12.23;;
69627;SDS011;56850;51.984;5.088;2023-03-09T02:18:11;20.00;;;12.10;;
69627;SDS011;56850;51.984;5.088;2023-03-09T02:20:42;20.95;;;12.07;;
69627;SDS011;56850;51.984;5.088;2023-03-09T02:23:22;17.42;;;10.93;;
69627;SDS011;56850;51.984;5.088;2023-03-09T02:25:56;20.73;;;11.43;;
69627;SDS011;56850;51.984;5.088;2023-03-09T02:28:35;21.15;;;11.77;;
69627;SDS011;56850;51.984;5.088;2023-03-09T02:31:03;17.38;;;11.07;;
69627;SDS011;56850;51.984;5.088;2023-03-09T02:33:32;19.33;;;12.35;;
69627;SDS011;56850;51.984;5.088;2023-03-09T02:36:00;19.58;;;10.95;;
69627;SDS011;56850;51.984;5.088;2023-03-09T02:38:32;15.77;;;9.77;;
69627;SDS011;56850;51.984;5.088;2023-03-09T02:41:00;19.58;;;11.60;;
69627;SDS011;56850;51.984;5.088;2023-03-09T02:43:34;19.48;;;11.75;;
69627;SDS011;56850;51.984;5.088;2023-03-09T02:46:14;17.95;;;10.50;;
69627;SDS011;56850;51.984;5.088;2023-03-09T02:48:42;20.95;;;11.60;;
69627;SDS011;56850;51.984;5.088;2023-03-09T02:51:08;19.17;;;12.00;;
69627;SDS011;56850;51.984;5.088;2023-03-09T02:53:35;18.73;;;11.95;;
69627;SDS011;56850;51.984;5.088;2023-03-09T02:56:02;18.75;;;10.98;;
69627;SDS011;56850;51.984;5.088;2023-03-09T02:58:31;20.00;;;11.25;;
69627;SDS011;56850;51.984;5.088;2023-03-09T03:00:59;20.10;;;11.55;;
69627;SDS011;56850;51.984;5.088;2023-03-09T03:03:28;17.80;;;11.30;;
69627;SDS011;56850;51.984;5.088;2023-03-09T03:05:55;17.02;;;10.18;;
69627;SDS011;56850;51.984;5.088;2023-03-09T03:08:22;18.77;;;10.82;;
69627;SDS011;56850;51.984;5.088;2023-03-09T03:11:04;19.67;;;12.00;;
69627;SDS011;56850;51.984;5.088;2023-03-09T03:13:31;19.63;;;11.88;;
69627;SDS011;56850;51.984;5.088;2023-03-09T03:16:00;18.50;;;11.40;;
69627;SDS011;56850;51.984;5.088;2023-03-09T03:18:27;20.40;;;11.13;;
69627;SDS011;56850;51.984;5.088;2023-03-09T03:20:55;17.55;;;10.75;;
69627;SDS011;56850;51.984;5.088;2023-03-09T03:23:22;21.13;;;12.13;;
69627;SDS011;56850;51.984;5.088;2023-03-09T03:25:52;17.95;;;11.40;;
69627;SDS011;56850;51.984;5.088;2023-03-09T03:28:19;18.37;;;11.03;;
69627;SDS011;56850;51.984;5.088;2023-03-09T03:30:51;19.85;;;11.52;;
69627;SDS011;56850;51.984;5.088;2023-03-09T03:33:22;17.23;;;11.10;;
69627;SDS011;56850;51.984;5.088;2023-03-09T03:35:49;20.30;;;11.70;;
69627;SDS011;56850;51.984;5.088;2023-03-09T03:38:17;18.17;;;10.98;;
69627;SDS011;56850;51.984;5.088;2023-03-09T03:40:44;19.77;;;11.90;;
69627;SDS011;56850;51.984;5.088;2023-03-09T03:43:11;15.07;;;9.50;;
69627;SDS011;56850;51.984;5.088;2023-03-09T03:45:41;21.17;;;11.98;;
69627;SDS011;56850;51.984;5.088;2023-03-09T03:48:09;22.23;;;13.02;;
69627;SDS011;56850;51.984;5.088;2023-03-09T03:50:36;20.40;;;12.57;;
69627;SDS011;56850;51.984;5.088;2023-03-09T03:53:03;21.23;;;12.83;;
69627;SDS011;56850;51.984;5.088;2023-03-09T03:55:31;19.67;;;11.77;;
69627;SDS011;56850;51.984;5.088;2023-03-09T03:58:00;22.48;;;13.07;;
69627;SDS011;56850;51.984;5.088;2023-03-09T04:00:27;22.13;;;12.95;;
69627;SDS011;56850;51.984;5.088;2023-03-09T04:02:57;22.60;;;12.20;;
69627;SDS011;56850;51.984;5.088;2023-03-09T04:05:35;20.40;;;12.80;;
69627;SDS011;56850;51.984;5.088;2023-03-09T04:08:03;20.05;;;12.40;;
69627;SDS011;56850;51.984;5.088;2023-03-09T04:10:30;22.17;;;12.93;;
69627;SDS011;56850;51.984;5.088;2023-03-09T04:12:57;20.70;;;12.70;;
69627;SDS011;56850;51.984;5.088;2023-03-09T04:15:26;22.55;;;13.10;;
69627;SDS011;56850;51.984;5.088;2023-03-09T04:17:53;21.67;;;12.73;;
69627;SDS011;56850;51.984;5.088;2023-03-09T04:20:20;20.05;;;12.27;;
69627;SDS011;56850;51.984;5.088;2023-03-09T04:22:48;22.38;;;13.25;;
69627;SDS011;56850;51.984;5.088;2023-03-09T04:25:17;19.80;;;11.45;;
69627;SDS011;56850;51.984;5.088;2023-03-09T04:27:44;20.88;;;11.77;;
69627;SDS011;56850;51.984;5.088;2023-03-09T04:30:21;21.40;;;13.13;;
69627;SDS011;56850;51.984;5.088;2023-03-09T04:32:52;21.10;;;12.07;;
69627;SDS011;56850;51.984;5.088;2023-03-09T04:35:19;22.30;;;12.73;;
69627;SDS011;56850;51.984;5.088;2023-03-09T04:37:48;19.88;;;12.80;;
69627;SDS011;56850;51.984;5.088;2023-03-09T04:40:17;23.52;;;12.98;;
69627;SDS011;56850;51.984;5.088;2023-03-09T04:42:45;18.87;;;12.00;;
69627;SDS011;56850;51.984;5.088;2023-03-09T04:45:13;22.27;;;12.10;;
69627;SDS011;56850;51.984;5.088;2023-03-09T04:47:42;19.98;;;11.60;;
69627;SDS011;56850;51.984;5.088;2023-03-09T04:50:09;19.75;;;11.60;;
69627;SDS011;56850;51.984;5.088;2023-03-09T04:52:44;21.92;;;12.95;;
69627;SDS011;56850;51.984;5.088;2023-03-09T04:55:11;20.77;;;11.37;;
69627;SDS011;56850;51.984;5.088;2023-03-09T04:57:37;21.40;;;12.55;;
69627;SDS011;56850;51.984;5.088;2023-03-09T05:00:05;19.45;;;12.25;;
69627;SDS011;56850;51.984;5.088;2023-03-09T05:02:37;20.00;;;10.70;;
69627;SDS011;56850;51.984;5.088;2023-03-09T05:05:06;22.40;;;12.43;;
69627;SDS011;56850;51.984;5.088;2023-03-09T05:07:34;19.90;;;12.50;;
69627;SDS011;56850;51.984;5.088;2023-03-09T05:10:04;18.27;;;11.75;;
69627;SDS011;56850;51.984;5.088;2023-03-09T05:12:34;19.45;;;12.07;;
69627;SDS011;56850;51.984;5.088;2023-03-09T05:15:04;21.20;;;12.98;;
69627;SDS011;56850;51.984;5.088;2023-03-09T05:17:34;19.90;;;12.02;;
69627;SDS011;56850;51.984;5.088;2023-03-09T05:20:02;24.17;;;12.57;;
69627;SDS011;56850;51.984;5.088;2023-03-09T05:22:39;19.58;;;11.60;;
69627;SDS011;56850;51.984;5.088;2023-03-09T05:25:08;21.98;;;12.70;;
69627;SDS011;56850;51.984;5.088;2023-03-09T05:27:36;20.65;;;11.70;;
69627;SDS011;56850;51.984;5.088;2023-03-09T05:30:04;21.42;;;12.45;;
69627;SDS011;56850;51.984;5.088;2023-03-09T05:32:33;20.83;;;12.23;;
69627;SDS011;56850;51.984;5.088;2023-03-09T05:35:00;21.20;;;12.65;;
69627;SDS011;56850;51.984;5.088;2023-03-09T05:37:27;24.02;;;12.98;;
69627;SDS011;56850;51.984;5.088;2023-03-09T05:39:56;20.80;;;12.93;;
69627;SDS011;56850;51.984;5.088;2023-03-09T05:42:23;22.65;;;12.85;;
69627;SDS011;56850;51.984;5.088;2023-03-09T05:44:50;21.47;;;12.87;;
69627;SDS011;56850;51.984;5.088;2023-03-09T05:47:17;20.95;;;12.13;;
69627;SDS011;56850;51.984;5.088;2023-03-09T05:49:44;23.70;;;13.48;;
69627;SDS011;56850;51.984;5.088;2023-03-09T05:52:13;22.58;;;12.80;;
69627;SDS011;56850;51.984;5.088;2023-03-09T05:54:41;20.25;;;12.68;;
69627;SDS011;56850;51.984;5.088;2023-03-09T05:57:11;22.50;;;13.60;;
69627;SDS011;56850;51.984;5.088;2023-03-09T05:59:40;23.55;;;13.02;;
69627;SDS011;56850;51.984;5.088;2023-03-09T06:02:07;20.60;;;13.18;;
69627;SDS011;56850;51.984;5.088;2023-03-09T06:04:38;18.98;;;11.95;;
69627;SDS011;56850;51.984;5.088;2023-03-09T06:07:07;20.83;;;12.00;;
69627;SDS011;56850;51.984;5.088;2023-03-09T06:09:39;21.87;;;12.87;;
69627;SDS011;56850;51.984;5.088;2023-03-09T06:12:11;22.75;;;12.85;;
69627;SDS011;56850;51.984;5.088;2023-03-09T06:14:40;19.35;;;12.13;;
69627;SDS011;56850;51.984;5.088;2023-03-09T06:17:09;22.75;;;12.73;;
69627;SDS011;56850;51.984;5.088;2023-03-09T06:19:36;18.98;;;10.40;;
69627;SDS011;56850;51.984;5.088;2023-03-09T06:22:03;22.47;;;13.37;;
69627;SDS011;56850;51.984;5.088;2023-03-09T06:24:32;24.63;;;13.55;;
69627;SDS011;56850;51.984;5.088;2023-03-09T06:26:59;23.08;;;12.82;;
69627;SDS011;56850;51.984;5.088;2023-03-09T06:29:33;24.75;;;13.23;;
69627;SDS011;56850;51.984;5.088;2023-03-09T06:32:01;19.92;;;11.38;;
69627;SDS011;56850;51.984;5.088;2023-03-09T06:34:30;23.53;;;13.37;;
69627;SDS011;56850;51.984;5.088;2023-03-09T06:37:01;22.02;;;12.90;;
69627;SDS011;56850;51.984;5.088;2023-03-09T06:39:30;22.17;;;13.00;;
69627;SDS011;56850;51.984;5.088;2023-03-09T06:41:57;22.55;;;12.90;;
69627;SDS011;56850;51.984;5.088;2023-03-09T06:44:32;19.25;;;11.20;;
69627;SDS011;56850;51.984;5.088;2023-03-09T06:47:00;21.60;;;13.37;;
69627;SDS011;56850;51.984;5.088;2023-03-09T06:49:28;17.17;;;9.32;;
69627;SDS011;56850;51.984;5.088;2023-03-09T06:51:57;23.10;;;13.35;;
69627;SDS011;56850;51.984;5.088;2023-03-09T06:54:24;22.45;;;13.65;;
69627;SDS011;56850;51.984;5.088;2023-03-09T06:57:00;22.20;;;13.02;;
69627;SDS011;56850;51.984;5.088;2023-03-09T06:59:30;20.37;;;12.00;;
69627;SDS011;56850;51.984;5.088;2023-03-09T07:01:58;22.63;;;12.50;;
69627;SDS011;56850;51.984;5.088;2023-03-09T07:04:25;23.02;;;12.93;;
69627;SDS011;56850;51.984;5.088;2023-03-09T07:06:52;20.67;;;12.77;;
69627;SDS011;56850;51.984;5.088;2023-03-09T07:09:19;23.45;;;12.90;;
69627;SDS011;56850;51.984;5.088;2023-03-09T07:11:46;24.83;;;13.67;;
69627;SDS011;56850;51.984;5.088;2023-03-09T07:14:14;23.38;;;14.52;;
69627;SDS011;56850;51.984;5.088;2023-03-09T07:16:41;25.73;;;14.27;;
69627;SDS011;56850;51.984;5.088;2023-03-09T07:19:09;21.60;;;12.93;;
69627;SDS011;56850;51.984;5.088;2023-03-09T07:21:36;23.83;;;13.68;;
69627;SDS011;56850;51.984;5.088;2023-03-09T07:24:03;18.03;;;9.67;;
69627;SDS011;56850;51.984;5.088;2023-03-09T07:26:30;22.42;;;13.15;;
69627;SDS011;56850;51.984;5.088;2023-03-09T07:28:57;22.13;;;13.25;;
69627;SDS011;56850;51.984;5.088;2023-03-09T07:31:24;21.63;;;13.32;;
69627;SDS011;56850;51.984;5.088;2023-03-09T07:33:50;23.85;;;13.90;;
69627;SDS011;56850;51.984;5.088;2023-03-09T07:36:17;21.23;;;13.07;;
69627;SDS011;56850;51.984;5.088;2023-03-09T07:38:44;28.40;;;14.95;;
69627;SDS011;56850;51.984;5.088;2023-03-09T07:41:11;23.15;;;14.40;;
69627;SDS011;56850;51.984;5.088;2023-03-09T07:43:38;24.80;;;14.60;;
69627;SDS011;56850;51.984;5.088;2023-03-09T07:46:22;27.23;;;14.38;;
69627;SDS011;56850;51.984;5.088;2023-03-09T07:48:50;22.33;;;14.07;;
69627;SDS011;56850;51.984;5.088;2023-03-09T07:51:20;24.67;;;13.90;;
69627;SDS011;56850;51.984;5.088;2023-03-09T07:53:48;24.25;;;13.80;;
69627;SDS011;56850;51.984;5.088;2023-03-09T07:56:15;27.30;;;14.63;;
69627;SDS011;56850;51.984;5.088;2023-03-09T07:58:42;24.70;;;14.57;;
69627;SDS011;56850;51.984;5.088;2023-03-09T08:01:13;22.90;;;13.63;;
69627;SDS011;56850;51.984;5.088;2023-03-09T08:03:43;24.45;;;14.35;;
69627;SDS011;56850;51.984;5.088;2023-03-09T08:06:11;23.52;;;13.65;;
69627;SDS011;56850;51.984;5.088;2023-03-09T08:08:39;25.35;;;15.10;;
69627;SDS011;56850;51.984;5.088;2023-03-09T08:11:06;24.45;;;14.38;;
69627;SDS011;56850;51.984;5.088;2023-03-09T08:13:34;23.73;;;14.13;;
69627;SDS011;56850;51.984;5.088;2023-03-09T08:16:02;22.60;;;13.57;;
69627;SDS011;56850;51.984;5.088;2023-03-09T08:18:31;25.02;;;15.05;;
69627;SDS011;56850;51.984;5.088;2023-03-09T08:21:08;24.15;;;14.60;;
69627;SDS011;56850;51.984;5.088;2023-03-09T08:23:38;24.05;;;12.95;;
69627;SDS011;56850;51.984;5.088;2023-03-09T08:26:08;25.40;;;14.23;;
69627;SDS011;56850;51.984;5.088;2023-03-09T08:28:38;24.00;;;14.10;;
69627;SDS011;56850;51.984;5.088;2023-03-09T08:31:05;25.55;;;14.80;;
69627;SDS011;56850;51.984;5.088;2023-03-09T08:33:34;25.85;;;14.27;;
69627;SDS011;56850;51.984;5.088;2023-03-09T08:36:14;24.73;;;14.10;;
69627;SDS011;56850;51.984;5.088;2023-03-09T08:38:43;21.93;;;12.73;;
69627;SDS011;56850;51.984;5.088;2023-03-09T08:41:12;20.55;;;12.40;;
69627;SDS011;56850;51.984;5.088;2023-03-09T08:43:39;23.42;;;13.85;;
69627;SDS011;56850;51.984;5.088;2023-03-09T08:46:06;25.30;;;14.57;;
69627;SDS011;56850;51.984;5.088;2023-03-09T08:48:34;23.35;;;12.90;;
69627;SDS011;56850;51.984;5.088;2023-03-09T08:51:02;26.13;;;15.23;;
69627;SDS011;56850;51.984;5.088;2023-03-09T08:53:36;24.15;;;14.02;;
69627;SDS011;56850;51.984;5.088;2023-03-09T08:56:04;24.98;;;14.82;;
69627;SDS011;56850;51.984;5.088;2023-03-09T08:58:33;27.13;;;15.40;;
69627;SDS011;56850;51.984;5.088;2023-03-09T09:01:01;25.27;;;14.48;;
69627;SDS011;56850;51.984;5.088;2023-03-09T09:03:30;26.83;;;14.67;;
69627;SDS011;56850;51.984;5.088;2023-03-09T09:06:04;23.58;;;14.05;;
69627;SDS011;56850;51.984;5.088;2023-03-09T09:08:33;25.13;;;13.30;;
69627;SDS011;56850;51.984;5.088;2023-03-09T09:11:04;24.40;;;14.38;;
69627;SDS011;56850;51.984;5.088;2023-03-09T09:13:38;30.27;;;15.07;;
69627;SDS011;56850;51.984;5.088;2023-03-09T09:16:06;26.73;;;14.83;;
69627;SDS011;56850;51.984;5.088;2023-03-09T09:18:35;24.98;;;14.05;;
69627;SDS011;56850;51.984;5.088;2023-03-09T09:21:08;26.67;;;14.40;;
69627;SDS011;56850;51.984;5.088;2023-03-09T09:23:38;25.50;;;13.30;;
69627;SDS011;56850;51.984;5.088;2023-03-09T09:26:07;25.70;;;14.15;;
69627;SDS011;56850;51.984;5.088;2023-03-09T09:28:34;24.90;;;14.30;;
69627;SDS011;56850;51.984;5.088;2023-03-09T09:31:02;24.67;;;13.85;;
69627;SDS011;56850;51.984;5.088;2023-03-09T09:33:34;26.75;;;14.80;;
69627;SDS011;56850;51.984;5.088;2023-03-09T09:36:02;25.30;;;14.65;;
69627;SDS011;56850;51.984;5.088;2023-03-09T09:38:32;27.15;;;15.52;;
69627;SDS011;56850;51.984;5.088;2023-03-09T09:41:02;27.43;;;14.80;;
69627;SDS011;56850;51.984;5.088;2023-03-09T09:43:32;25.50;;;14.40;;
69627;SDS011;56850;51.984;5.088;2023-03-09T09:46:00;26.90;;;15.05;;
69627;SDS011;56850;51.984;5.088;2023-03-09T09:48:30;25.88;;;14.00;;
69627;SDS011;56850;51.984;5.088;2023-03-09T09:51:09;25.50;;;14.88;;
69627;SDS011;56850;51.984;5.088;2023-03-09T09:56:18;26.67;;;14.20;;
69627;SDS011;56850;51.984;5.088;2023-03-09T09:58:53;28.73;;;15.15;;
69627;SDS011;56850;51.984;5.088;2023-03-09T10:01:39;27.60;;;15.88;;
69627;SDS011;56850;51.984;5.088;2023-03-09T10:04:18;26.05;;;14.48;;
69627;SDS011;56850;51.984;5.088;2023-03-09T10:06:53;27.73;;;14.43;;
69627;SDS011;56850;51.984;5.088;2023-03-09T10:09:25;29.77;;;15.52;;
69627;SDS011;56850;51.984;5.088;2023-03-09T10:12:05;25.00;;;14.10;;
69627;SDS011;56850;51.984;5.088;2023-03-09T10:14:41;28.50;;;15.00;;
69627;SDS011;56850;51.984;5.088;2023-03-09T10:17:13;29.42;;;15.30;;
69627;SDS011;56850;51.984;5.088;2023-03-09T10:19:47;28.40;;;15.27;;
69627;SDS011;56850;51.984;5.088;2023-03-09T10:22:17;23.65;;;13.43;;
69627;SDS011;56850;51.984;5.088;2023-03-09T10:24:51;27.48;;;15.02;;
69627;SDS011;56850;51.984;5.088;2023-03-09T10:27:20;28.55;;;14.68;;
69627;SDS011;56850;51.984;5.088;2023-03-09T10:35:39;28.30;;;14.63;;
69627;SDS011;56850;51.984;5.088;2023-03-09T10:38:30;26.98;;;15.13;;
69627;SDS011;56850;51.984;5.088;2023-03-09T10:40:59;26.73;;;13.90;;
69627;SDS011;56850;51.984;5.088;2023-03-09T10:43:30;27.10;;;14.95;;
69627;SDS011;56850;51.984;5.088;2023-03-09T10:48:47;28.33;;;15.35;;
69627;SDS011;56850;51.984;5.088;2023-03-09T10:51:25;27.92;;;15.48;;
69627;SDS011;56850;51.984;5.088;2023-03-09T10:53:58;26.75;;;14.73;;
69627;SDS011;56850;51.984;5.088;2023-03-09T10:56:45;28.98;;;14.52;;
69627;SDS011;56850;51.984;5.088;2023-03-09T11:01:45;29.60;;;15.88;;
69627;SDS011;56850;51.984;5.088;2023-03-09T11:07:05;28.58;;;14.68;;
69627;SDS011;56850;51.984;5.088;2023-03-09T11:09:53;22.38;;;11.52;;
69627;SDS011;56850;51.984;5.088;2023-03-09T11:12:25;29.33;;;15.47;;
69627;SDS011;56850;51.984;5.088;2023-03-09T11:15:04;28.73;;;14.48;;
69627;SDS011;56850;51.984;5.088;2023-03-09T11:17:43;29.65;;;15.02;;
69627;SDS011;56850;51.984;5.088;2023-03-09T11:22:39;30.73;;;15.77;;
69627;SDS011;56850;51.984;5.088;2023-03-09T11:25:16;28.47;;;15.10;;
69627;SDS011;56850;51.984;5.088;2023-03-09T11:27:49;35.38;;;17.55;;
69627;SDS011;56850;51.984;5.088;2023-03-09T11:30:24;30.17;;;15.52;;
69627;SDS011;56850;51.984;5.088;2023-03-09T11:32:54;30.48;;;16.33;;
69627;SDS011;56850;51.984;5.088;2023-03-09T11:35:22;28.63;;;15.95;;
69627;SDS011;56850;51.984;5.088;2023-03-09T11:38:00;30.10;;;15.53;;
69627;SDS011;56850;51.984;5.088;2023-03-09T11:40:31;30.17;;;15.80;;
69627;SDS011;56850;51.984;5.088;2023-03-09T11:43:01;31.88;;;16.48;;
69627;SDS011;56850;51.984;5.088;2023-03-09T11:45:42;28.55;;;15.05;;
69627;SDS011;56850;51.984;5.088;2023-03-09T11:48:29;30.50;;;16.10;;
69627;SDS011;56850;51.984;5.088;2023-03-09T11:53:34;35.78;;;15.82;;
69627;SDS011;56850;51.984;5.088;2023-03-09T11:56:26;32.05;;;17.05;;
69627;SDS011;56850;51.984;5.088;2023-03-09T11:59:17;31.92;;;15.20;;
69627;SDS011;56850;51.984;5.088;2023-03-09T12:04:47;31.23;;;15.83;;
69627;SDS011;56850;51.984;5.088;2023-03-09T12:07:18;28.95;;;15.35;;
69627;SDS011;56850;51.984;5.088;2023-03-09T12:12:24;32.38;;;15.95;;
69627;SDS011;56850;51.984;5.088;2023-03-09T12:14:56;31.10;;;15.85;;
69627;SDS011;56850;51.984;5.088;2023-03-09T12:17:50;27.60;;;14.57;;
69627;SDS011;56850;51.984;5.088;2023-03-09T12:20:24;27.63;;;14.95;;
69627;SDS011;56850;51.984;5.088;2023-03-09T12:29:02;32.38;;;16.42;;
69627;SDS011;56850;51.984;5.088;2023-03-09T12:31:31;31.17;;;15.70;;
69627;SDS011;56850;51.984;5.088;2023-03-09T12:36:33;28.73;;;15.65;;
69627;SDS011;56850;51.984;5.088;2023-03-09T12:42:01;30.08;;;15.82;;
69627;SDS011;56850;51.984;5.088;2023-03-09T12:49:48;27.30;;;14.35;;
69627;SDS011;56850;51.984;5.088;2023-03-09T12:52:25;28.75;;;15.05;;
69627;SDS011;56850;51.984;5.088;2023-03-09T12:55:22;29.30;;;15.23;;
69627;SDS011;56850;51.984;5.088;2023-03-09T12:58:27;27.70;;;14.37;;
69627;SDS011;56850;51.984;5.088;2023-03-09T13:03:46;26.23;;;14.13;;
69627;SDS011;56850;51.984;5.088;2023-03-09T13:06:34;28.20;;;15.27;;
69627;SDS011;56850;51.984;5.088;2023-03-09T13:21:42;28.13;;;14.80;;
69627;SDS011;56850;51.984;5.088;2023-03-09T13:24:20;27.70;;;14.80;;
69627;SDS011;56850;51.984;5.088;2023-03-09T13:26:55;28.20;;;14.35;;
69627;SDS011;56850;51.984;5.088;2023-03-09T13:29:27;26.13;;;14.18;;
69627;SDS011;56850;51.984;5.088;2023-03-09T13:32:03;27.63;;;15.77;;
69627;SDS011;56850;51.984;5.088;2023-03-09T13:34:32;29.38;;;14.85;;
69627;SDS011;56850;51.984;5.088;2023-03-09T13:37:07;24.63;;;13.53;;
69627;SDS011;56850;51.984;5.088;2023-03-09T13:39:55;28.30;;;14.73;;
69627;SDS011;56850;51.984;5.088;2023-03-09T13:42:23;28.52;;;14.30;;
69627;SDS011;56850;51.984;5.088;2023-03-09T13:44:50;33.13;;;15.20;;
69627;SDS011;56850;51.984;5.088;2023-03-09T13:47:23;26.73;;;14.35;;
69627;SDS011;56850;51.984;5.088;2023-03-09T13:49:55;26.50;;;14.60;;
69627;SDS011;56850;51.984;5.088;2023-03-09T13:52:23;29.30;;;15.05;;
69627;SDS011;56850;51.984;5.088;2023-03-09T13:54:54;29.70;;;15.55;;
69627;SDS011;56850;51.984;5.088;2023-03-09T13:57:22;27.95;;;13.23;;
69627;SDS011;56850;51.984;5.088;2023-03-09T13:59:59;27.60;;;14.18;;
69627;SDS011;56850;51.984;5.088;2023-03-09T14:02:36;26.87;;;15.13;;
69627;SDS011;56850;51.984;5.088;2023-03-09T14:05:05;24.25;;;13.25;;
69627;SDS011;56850;51.984;5.088;2023-03-09T14:08:02;25.33;;;13.73;;
69627;SDS011;56850;51.984;5.088;2023-03-09T14:20:59;28.25;;;15.15;;
69627;SDS011;56850;51.984;5.088;2023-03-09T14:23:35;25.88;;;14.43;;
69627;SDS011;56850;51.984;5.088;2023-03-09T14:26:03;26.67;;;13.73;;
69627;SDS011;56850;51.984;5.088;2023-03-09T14:28:34;24.63;;;12.70;;
69627;SDS011;56850;51.984;5.088;2023-03-09T14:31:16;24.90;;;13.40;;
69627;SDS011;56850;51.984;5.088;2023-03-09T14:33:55;24.05;;;13.57;;
69627;SDS011;56850;51.984;5.088;2023-03-09T14:36:27;25.88;;;13.82;;
69627;SDS011;56850;51.984;5.088;2023-03-09T14:39:00;27.65;;;13.48;;
69627;SDS011;56850;51.984;5.088;2023-03-09T14:41:37;23.73;;;13.17;;
69627;SDS011;56850;51.984;5.088;2023-03-09T14:44:04;23.50;;;13.02;;
69627;SDS011;56850;51.984;5.088;2023-03-09T14:46:31;24.08;;;13.40;;
69627;SDS011;56850;51.984;5.088;2023-03-09T14:48:59;23.83;;;13.43;;
69627;SDS011;56850;51.984;5.088;2023-03-09T14:51:30;20.40;;;12.38;;
69627;SDS011;56850;51.984;5.088;2023-03-09T14:56:35;22.58;;;11.73;;
69627;SDS011;56850;51.984;5.088;2023-03-09T14:59:12;21.85;;;12.07;;
69627;SDS011;56850;51.984;5.088;2023-03-09T15:01:51;22.23;;;11.63;;
69627;SDS011;56850;51.984;5.088;2023-03-09T15:04:26;23.02;;;12.45;;
69627;SDS011;56850;51.984;5.088;2023-03-09T15:06:54;21.63;;;12.13;;
69627;SDS011;56850;51.984;5.088;2023-03-09T15:09:22;23.27;;;12.88;;
69627;SDS011;56850;51.984;5.088;2023-03-09T15:11:49;19.23;;;11.85;;
69627;SDS011;56850;51.984;5.088;2023-03-09T15:16:55;20.95;;;11.88;;
69627;SDS011;56850;51.984;5.088;2023-03-09T15:19:23;17.47;;;8.73;;
69627;SDS011;56850;51.984;5.088;2023-03-09T15:21:51;20.15;;;11.45;;
69627;SDS011;56850;51.984;5.088;2023-03-09T15:24:23;23.27;;;12.98;;
69627;SDS011;56850;51.984;5.088;2023-03-09T15:26:51;23.02;;;13.10;;
69627;SDS011;56850;51.984;5.088;2023-03-09T15:29:19;23.33;;;12.52;;
69627;SDS011;56850;51.984;5.088;2023-03-09T15:31:46;23.07;;;12.37;;
69627;SDS011;56850;51.984;5.088;2023-03-09T15:34:14;22.80;;;11.82;;
69627;SDS011;56850;51.984;5.088;2023-03-09T15:36:41;15.30;;;9.25;;
69627;SDS011;56850;51.984;5.088;2023-03-09T15:39:08;21.10;;;11.50;;
69627;SDS011;56850;51.984;5.088;2023-03-09T15:41:34;18.60;;;11.05;;
69627;SDS011;56850;51.984;5.088;2023-03-09T15:44:02;22.50;;;11.97;;
69627;SDS011;56850;51.984;5.088;2023-03-09T15:46:29;22.45;;;12.75;;
69627;SDS011;56850;51.984;5.088;2023-03-09T15:48:58;22.45;;;11.63;;
69627;SDS011;56850;51.984;5.088;2023-03-09T15:51:25;20.15;;;10.90;;
69627;SDS011;56850;51.984;5.088;2023-03-09T15:53:52;18.23;;;10.52;;
69627;SDS011;56850;51.984;5.088;2023-03-09T15:56:19;21.03;;;11.50;;
69627;SDS011;56850;51.984;5.088;2023-03-09T15:58:46;17.50;;;10.27;;
69627;SDS011;56850;51.984;5.088;2023-03-09T16:01:14;20.75;;;10.80;;